createdAt,value
2023-03-08T00:00:00.549Z,74.00
2023-03-08T00:02:27.736Z,74.10
2023-03-08T00:04:55.839Z,73.80
2023-03-08T00:07:23.624Z,74.30
2023-03-08T00:09:50.993Z,74.30
2023-03-08T00:12:22.804Z,74.30
2023-03-08T00:14:50.597Z,74.20
2023-03-08T00:17:18.427Z,74.00
2023-03-08T00:19:45.624Z,73.90
2023-03-08T00:22:12.953Z,73.90
2023-03-08T00:24:40.046Z,73.90
2023-03-08T00:27:07.137Z,74.10
2023-03-08T00:29:34.886Z,73.90
2023-03-08T00:32:02.025Z,74.00
2023-03-08T00:34:29.100Z,74.10
2023-03-08T00:36:56.177Z,73.90
2023-03-08T00:39:23.237Z,73.90
2023-03-08T00:41:50.483Z,74.00
2023-03-08T00:44:17.632Z,73.90
2023-03-08T00:46:44.910Z,74.30
2023-03-08T00:49:13.506Z,74.30
2023-03-08T00:51:40.574Z,74.40
2023-03-08T00:54:07.648Z,74.10
2023-03-08T00:56:34.773Z,74.20
2023-03-08T00:59:01.951Z,74.00
2023-03-08T01:01:29.065Z,73.80
2023-03-08T01:03:56.271Z,73.90
2023-03-08T01:06:23.495Z,73.80
2023-03-08T01:08:51.126Z,74.30
2023-03-08T01:11:19.878Z,73.60
2023-03-08T01:13:47.787Z,73.70
2023-03-08T01:16:21.378Z,73.70
2023-03-08T01:18:48.915Z,73.60
2023-03-08T01:21:17.035Z,73.90
2023-03-08T01:23:44.121Z,73.80
2023-03-08T01:26:13.722Z,73.90
2023-03-08T01:28:41.139Z,74.00
2023-03-08T01:31:17.082Z,73.90
2023-03-08T01:33:45.064Z,74.40
2023-03-08T01:36:17.537Z,74.60
2023-03-08T01:38:45.833Z,74.20
2023-03-08T01:41:25.522Z,74.00
2023-03-08T01:43:53.991Z,74.10
2023-03-08T01:46:26.170Z,74.30
2023-03-08T01:49:02.127Z,74.30
2023-03-08T01:51:37.492Z,74.30
2023-03-08T01:54:20.912Z,74.30
2023-03-08T01:56:50.875Z,74.30
2023-03-08T01:59:22.175Z,74.30
2023-03-08T02:01:49.717Z,74.30
2023-03-08T02:04:16.825Z,74.30
2023-03-08T02:06:44.909Z,74.30
2023-03-08T02:09:12.678Z,74.20
2023-03-08T02:11:41.939Z,74.70
2023-03-08T02:14:09.338Z,72.20
2023-03-08T02:16:36.799Z,73.00
2023-03-08T02:19:27.405Z,72.00
2023-03-08T02:21:54.494Z,72.50
2023-03-08T02:24:24.083Z,72.60
2023-03-08T02:27:06.630Z,72.20
2023-03-08T02:29:33.764Z,71.60
2023-03-08T02:32:00.905Z,72.00
2023-03-08T02:34:28.113Z,71.90
2023-03-08T02:36:55.226Z,72.20
2023-03-08T02:39:22.377Z,72.10
2023-03-08T02:41:49.499Z,72.10
2023-03-08T02:44:16.658Z,72.10
2023-03-08T02:46:43.770Z,71.80
2023-03-08T02:49:10.836Z,71.30
2023-03-08T02:51:37.931Z,71.50
2023-03-08T02:54:05.079Z,71.20
2023-03-08T02:56:32.256Z,69.70
2023-03-08T02:58:59.334Z,70.00
2023-03-08T03:01:26.451Z,69.20
2023-03-08T03:03:55.292Z,67.10
2023-03-08T03:06:23.008Z,66.30
2023-03-08T03:08:50.350Z,67.20
2023-03-08T03:11:20.275Z,64.40
2023-03-08T03:13:47.705Z,65.20
2023-03-08T03:16:16.543Z,65.50
2023-03-08T03:18:43.794Z,65.20
2023-03-08T03:21:13.441Z,65.30
2023-03-08T03:23:41.683Z,63.30
2023-03-08T03:26:17.807Z,63.60
2023-03-08T03:28:45.477Z,64.00
2023-03-08T03:31:15.962Z,64.70
2023-03-08T03:33:43.635Z,62.20
2023-03-08T03:36:13.260Z,61.20
2023-03-08T03:38:41.014Z,63.30
2023-03-08T03:41:14.064Z,60.30
2023-03-08T03:43:41.558Z,61.10
2023-03-08T03:46:12.252Z,60.90
2023-03-08T03:48:39.984Z,61.20
2023-03-08T03:51:11.784Z,60.60
2023-03-08T03:53:39.186Z,60.80
2023-03-08T03:56:09.581Z,60.50
2023-03-08T03:58:36.944Z,61.70
2023-03-08T04:01:12.856Z,62.10
2023-03-08T04:03:39.956Z,62.20
2023-03-08T04:06:18.398Z,62.20
2023-03-08T04:08:45.836Z,62.30
2023-03-08T04:11:17.825Z,61.50
2023-03-08T04:13:45.475Z,62.10
2023-03-08T04:16:17.017Z,62.10
2023-03-08T04:18:44.662Z,62.30
2023-03-08T04:21:12.726Z,61.60
2023-03-08T04:23:39.986Z,61.80
2023-03-08T04:26:08.142Z,61.50
2023-03-08T04:28:35.968Z,62.10
2023-03-08T04:31:20.817Z,62.10
2023-03-08T04:33:48.631Z,62.20
2023-03-08T04:36:16.901Z,62.40
2023-03-08T04:38:45.651Z,62.20
2023-03-08T04:41:13.274Z,62.20
2023-03-08T04:43:52.107Z,62.40
2023-03-08T04:46:21.017Z,62.50
2023-03-08T04:48:48.600Z,62.50
2023-03-08T04:51:16.678Z,62.50
2023-03-08T04:53:45.507Z,62.60
2023-03-08T04:56:14.627Z,63.30
2023-03-08T04:58:42.724Z,62.20
2023-03-08T05:01:30.116Z,62.30
2023-03-08T05:03:57.250Z,62.30
2023-03-08T05:06:26.688Z,62.50
2023-03-08T05:08:55.116Z,62.50
2023-03-08T05:11:27.390Z,62.40
2023-03-08T05:13:55.798Z,62.10
2023-03-08T05:16:23.477Z,62.40
2023-03-08T05:18:50.763Z,62.30
2023-03-08T05:21:20.651Z,61.30
2023-03-08T05:23:48.124Z,59.50
2023-03-08T05:26:17.388Z,61.10
2023-03-08T05:28:44.567Z,61.00
2023-03-08T05:31:17.017Z,61.20
2023-03-08T05:33:46.630Z,61.00
2023-03-08T05:36:15.008Z,61.50
2023-03-08T05:38:42.379Z,60.30
2023-03-08T05:41:13.096Z,60.70
2023-03-08T05:43:40.223Z,60.10
2023-03-08T05:46:10.527Z,60.10
2023-03-08T05:48:38.167Z,58.70
2023-03-08T05:51:07.210Z,58.00
2023-03-08T05:53:34.987Z,58.30
2023-03-08T05:56:11.005Z,58.80
2023-03-08T05:58:39.003Z,58.50
2023-03-08T06:01:20.902Z,59.10
2023-03-08T06:03:50.457Z,58.20
2023-03-08T06:06:18.697Z,58.90
2023-03-08T06:08:46.182Z,59.00
2023-03-08T06:11:14.282Z,59.10
2023-03-08T06:13:41.755Z,59.30
2023-03-08T06:16:09.519Z,58.90
2023-03-08T06:18:38.532Z,58.70
2023-03-08T06:21:07.088Z,58.80
2023-03-08T06:23:35.531Z,58.90
2023-03-08T06:26:03.772Z,58.40
2023-03-08T06:28:31.539Z,58.60
2023-03-08T06:30:59.415Z,58.90
2023-03-08T06:33:29.350Z,58.40
2023-03-08T06:36:25.768Z,58.50
2023-03-08T06:38:53.062Z,57.60
2023-03-08T06:41:21.479Z,58.00
2023-03-08T06:43:49.129Z,57.10
2023-03-08T06:46:18.663Z,56.20
2023-03-08T06:48:48.752Z,55.90
2023-03-08T06:51:16.582Z,56.20
2023-03-08T06:53:43.965Z,55.60
2023-03-08T06:56:15.018Z,54.80
2023-03-08T06:58:42.756Z,55.40
2023-03-08T07:01:10.858Z,54.50
2023-03-08T07:03:38.403Z,54.80
2023-03-08T07:06:09.539Z,54.30
2023-03-08T07:08:38.360Z,53.50
2023-03-08T07:11:06.910Z,53.60
2023-03-08T07:13:34.095Z,53.60
2023-03-08T07:16:09.593Z,54.60
2023-03-08T07:18:36.988Z,54.50
2023-03-08T07:21:04.577Z,54.20
2023-03-08T07:23:34.240Z,55.10
2023-03-08T07:26:05.052Z,55.00
2023-03-08T07:28:32.188Z,55.70
2023-03-08T07:30:59.468Z,54.80
2023-03-08T07:33:26.635Z,54.20
2023-03-08T07:35:53.800Z,54.80
2023-03-08T07:38:21.054Z,54.20
2023-03-08T07:40:55.486Z,54.10
2023-03-08T07:43:23.579Z,54.00
2023-03-08T07:45:50.738Z,54.10
2023-03-08T07:48:17.857Z,54.30
2023-03-08T07:50:45.001Z,53.90
2023-03-08T07:53:12.146Z,54.10
2023-03-08T07:55:39.261Z,53.40
2023-03-08T07:58:06.580Z,53.40
2023-03-08T08:00:37.330Z,52.90
2023-03-08T08:03:04.558Z,53.90
2023-03-08T08:05:31.755Z,54.70
2023-03-08T08:07:58.914Z,53.60
2023-03-08T08:10:26.061Z,53.50
2023-03-08T08:12:53.252Z,53.60
2023-03-08T08:15:21.025Z,53.90
2023-03-08T08:17:48.134Z,53.90
2023-03-08T08:20:15.334Z,50.80
2023-03-08T08:22:43.641Z,51.50
2023-03-08T08:25:11.593Z,50.90
2023-03-08T08:27:38.821Z,51.20
2023-03-08T08:30:06.825Z,50.70
2023-03-08T08:32:35.532Z,51.20
2023-03-08T08:35:02.902Z,49.80
2023-03-08T08:37:30.780Z,50.70
2023-03-08T08:39:58.117Z,50.60
2023-03-08T08:42:26.096Z,50.30
2023-03-08T08:44:53.864Z,50.00
2023-03-08T08:47:21.024Z,50.50
2023-03-08T08:49:48.152Z,50.10
2023-03-08T08:52:15.282Z,49.20
2023-03-08T08:54:42.508Z,50.00
2023-03-08T08:57:09.617Z,50.10
2023-03-08T08:59:36.735Z,48.40
2023-03-08T09:02:04.166Z,45.60
2023-03-08T09:04:31.584Z,47.50
2023-03-08T09:06:58.963Z,48.60
2023-03-08T09:09:27.040Z,47.40
2023-03-08T09:11:55.889Z,47.50
2023-03-08T09:14:23.808Z,47.20
2023-03-08T09:16:52.691Z,45.90
2023-03-08T09:19:20.104Z,46.20
2023-03-08T09:21:47.377Z,47.40
2023-03-08T09:24:14.930Z,45.30
2023-03-08T09:26:42.315Z,46.50
2023-03-08T09:29:11.320Z,46.40
2023-03-08T09:31:39.213Z,45.60
2023-03-08T09:34:09.392Z,46.30
2023-03-08T09:36:39.623Z,45.70
2023-03-08T09:39:09.152Z,44.20
2023-03-08T09:41:50.672Z,42.70
2023-03-08T09:44:26.100Z,41.90
2023-03-08T09:47:13.700Z,44.40
2023-03-08T09:49:44.485Z,45.70
2023-03-08T09:52:41.682Z,44.90
2023-03-08T09:55:31.864Z,44.00
2023-03-08T09:58:13.899Z,44.20
2023-03-08T10:00:41.822Z,44.60
2023-03-08T10:03:18.180Z,46.00
2023-03-08T10:06:12.828Z,42.00
2023-03-08T10:08:57.693Z,44.40
2023-03-08T10:12:00.421Z,45.10
2023-03-08T10:14:35.008Z,44.00
2023-03-08T10:17:11.972Z,45.70
2023-03-08T10:19:54.378Z,45.50
2023-03-08T10:22:29.556Z,45.60
2023-03-08T10:25:26.951Z,45.00
2023-03-08T10:27:56.165Z,45.30
2023-03-08T10:30:27.747Z,45.80
2023-03-08T10:32:59.683Z,45.40
2023-03-08T10:35:33.061Z,44.50
2023-03-08T10:38:00.185Z,43.00
2023-03-08T10:40:27.739Z,45.40
2023-03-08T10:43:05.541Z,45.00
2023-03-08T10:45:33.689Z,45.20
2023-03-08T10:48:04.049Z,44.30
2023-03-08T10:50:36.927Z,44.00
2023-03-08T10:53:20.253Z,43.90
2023-03-08T10:55:50.918Z,44.60
2023-03-08T10:58:48.986Z,44.20
2023-03-08T11:01:34.134Z,44.50
2023-03-08T11:04:16.200Z,41.20
2023-03-08T11:06:43.992Z,43.60
2023-03-08T11:09:28.055Z,43.70
2023-03-08T11:11:57.060Z,43.50
2023-03-08T11:14:25.662Z,42.70
2023-03-08T11:16:52.790Z,41.30
2023-03-08T11:20:10.761Z,42.10
2023-03-08T11:22:59.362Z,41.50
2023-03-08T11:25:34.550Z,42.30
2023-03-08T11:28:20.133Z,42.10
2023-03-08T11:31:06.078Z,42.20
2023-03-08T11:33:39.911Z,42.90
2023-03-08T11:36:26.956Z,42.50
2023-03-08T11:39:26.019Z,41.70
2023-03-08T11:42:20.992Z,42.60
2023-03-08T11:45:19.838Z,41.80
2023-03-08T11:48:04.766Z,42.10
2023-03-08T11:50:38.158Z,41.70
2023-03-08T11:53:24.120Z,42.10
2023-03-08T11:56:20.627Z,41.00
2023-03-08T11:58:57.657Z,41.50
2023-03-08T12:01:32.637Z,42.10
2023-03-08T12:04:07.371Z,41.80
2023-03-08T12:06:43.855Z,41.60
2023-03-08T12:09:17.049Z,42.20
2023-03-08T12:12:22.912Z,42.30
2023-03-08T12:15:00.349Z,42.80
2023-03-08T12:17:41.292Z,42.20
2023-03-08T12:20:16.208Z,42.20
2023-03-08T12:22:58.004Z,41.70
2023-03-08T12:25:35.005Z,41.90
2023-03-08T12:28:24.453Z,40.80
2023-03-08T12:31:27.311Z,40.60
2023-03-08T12:33:57.457Z,40.50
2023-03-08T12:36:43.119Z,40.40
2023-03-08T12:39:28.897Z,40.80
2023-03-08T12:42:15.203Z,40.60
2023-03-08T12:44:43.003Z,41.00
2023-03-08T12:47:13.368Z,41.10
2023-03-08T12:49:43.663Z,41.40
2023-03-08T12:52:19.989Z,41.60
2023-03-08T12:55:00.382Z,41.80
2023-03-08T12:57:52.528Z,42.00
2023-03-08T13:00:27.651Z,42.30
2023-03-08T13:03:06.359Z,42.70
2023-03-08T13:05:36.975Z,42.80
2023-03-08T13:08:23.447Z,42.90
2023-03-08T13:10:50.519Z,43.10
2023-03-08T13:13:37.504Z,43.40
2023-03-08T13:16:14.899Z,43.60
2023-03-08T13:18:48.281Z,43.90
2023-03-08T13:21:41.461Z,44.10
2023-03-08T13:24:19.575Z,44.30
2023-03-08T13:27:09.546Z,44.50
2023-03-08T13:29:36.858Z,44.70
2023-03-08T13:32:21.846Z,44.80
2023-03-08T13:35:03.045Z,44.80
2023-03-08T13:37:30.995Z,44.90
2023-03-08T13:40:00.266Z,45.20
2023-03-08T13:42:29.322Z,45.40
2023-03-08T13:45:17.572Z,45.50
2023-03-08T13:47:46.118Z,45.60
2023-03-08T13:50:20.362Z,45.90
2023-03-08T13:52:47.821Z,46.10
2023-03-08T13:55:27.353Z,46.30
2023-03-08T13:57:55.404Z,47.60
2023-03-08T14:00:31.340Z,47.90
2023-03-08T14:02:59.689Z,49.20
2023-03-08T14:05:29.666Z,48.60
2023-03-08T14:08:06.176Z,49.70
2023-03-08T14:10:38.024Z,49.80
2023-03-08T14:13:06.785Z,50.50
2023-03-08T14:15:38.412Z,52.30
2023-03-08T14:18:08.479Z,51.50
2023-03-08T14:20:35.969Z,52.50
2023-03-08T14:23:03.753Z,52.30
2023-03-08T14:25:32.482Z,52.40
2023-03-08T14:27:59.694Z,53.00
2023-03-08T14:30:29.369Z,52.90
2023-03-08T14:33:07.178Z,53.70
2023-03-08T14:35:43.862Z,53.10
2023-03-08T14:38:21.037Z,53.40
2023-03-08T14:40:51.999Z,53.50
2023-03-08T14:43:22.121Z,53.40
2023-03-08T14:45:56.872Z,53.70
2023-03-08T14:48:29.555Z,53.90
2023-03-08T14:50:59.621Z,53.70
2023-03-08T14:53:39.237Z,53.80
2023-03-08T14:56:14.622Z,53.70
2023-03-08T14:58:49.073Z,53.90
2023-03-08T15:01:35.012Z,54.00
2023-03-08T15:04:03.302Z,54.00
2023-03-08T15:06:34.595Z,54.20
2023-03-08T15:09:03.977Z,54.60
2023-03-08T15:11:32.461Z,54.70
2023-03-08T15:14:00.006Z,54.60
2023-03-08T15:16:27.732Z,55.00
2023-03-08T15:18:54.977Z,55.50
2023-03-08T15:21:25.289Z,55.50
2023-03-08T15:23:53.041Z,55.10
2023-03-08T15:26:29.167Z,55.30
2023-03-08T15:28:56.310Z,55.00
2023-03-08T15:31:23.751Z,55.30
2023-03-08T15:33:50.866Z,55.20
2023-03-08T15:36:19.078Z,55.40
2023-03-08T15:38:46.443Z,55.30
2023-03-08T15:41:15.648Z,56.30
2023-03-08T15:43:43.560Z,55.50
2023-03-08T15:46:13.095Z,55.50
2023-03-08T15:48:40.562Z,55.40
2023-03-08T15:51:18.343Z,55.40
2023-03-08T15:53:46.127Z,55.50
2023-03-08T15:56:13.285Z,55.50
2023-03-08T15:58:40.697Z,55.40
2023-03-08T16:01:07.911Z,55.50
2023-03-08T16:03:35.160Z,56.30
2023-03-08T16:06:03.399Z,55.80
2023-03-08T16:08:30.751Z,55.60
2023-03-08T16:11:03.957Z,56.20
2023-03-08T16:13:31.856Z,56.10
2023-03-08T16:16:00.482Z,55.90
2023-03-08T16:18:29.475Z,56.30
2023-03-08T16:20:57.879Z,56.00
2023-03-08T16:23:25.392Z,56.00
2023-03-08T16:26:15.747Z,56.30
2023-03-08T16:28:45.648Z,56.00
2023-03-08T16:31:13.724Z,56.00
2023-03-08T16:33:41.212Z,56.50
2023-03-08T16:36:08.741Z,56.50
2023-03-08T16:38:37.180Z,56.40
2023-03-08T16:41:13.588Z,56.30
2023-03-08T16:43:48.347Z,56.80
2023-03-08T16:46:18.098Z,56.60
2023-03-08T16:48:45.596Z,56.70
2023-03-08T16:51:15.254Z,56.80
2023-03-08T16:53:42.656Z,57.00
2023-03-08T16:56:16.605Z,56.80
2023-03-08T16:58:43.729Z,57.30
2023-03-08T17:01:12.507Z,57.50
2023-03-08T17:03:40.393Z,57.40
2023-03-08T17:06:09.976Z,57.90
2023-03-08T17:08:37.297Z,58.10
2023-03-08T17:11:06.190Z,57.40
2023-03-08T17:13:33.473Z,57.60
2023-03-08T17:16:02.635Z,57.50
2023-03-08T17:18:29.764Z,57.50
2023-03-08T17:20:57.800Z,57.50
2023-03-08T17:23:25.189Z,57.50
2023-03-08T17:25:53.390Z,57.80
2023-03-08T17:28:20.556Z,57.70
2023-03-08T17:30:47.755Z,57.80
2023-03-08T17:33:14.912Z,57.70
2023-03-08T17:35:42.686Z,57.60
2023-03-08T17:38:09.801Z,57.60
2023-03-08T17:40:40.225Z,57.60
2023-03-08T17:43:07.404Z,57.60
2023-03-08T17:45:34.513Z,57.80
2023-03-08T17:48:02.880Z,57.80
2023-03-08T17:50:31.240Z,57.80
2023-03-08T17:52:58.719Z,57.80
2023-03-08T17:55:27.000Z,57.80
2023-03-08T17:57:54.256Z,57.90
2023-03-08T18:00:21.855Z,57.80
2023-03-08T18:02:49.223Z,57.80
2023-03-08T18:05:16.467Z,57.90
2023-03-08T18:07:45.430Z,58.10
2023-03-08T18:10:15.414Z,58.00
2023-03-08T18:12:42.746Z,58.10
2023-03-08T18:15:10.281Z,58.60
2023-03-08T18:17:39.877Z,58.50
2023-03-08T18:20:11.321Z,58.40
2023-03-08T18:22:40.712Z,58.50
2023-03-08T18:25:08.270Z,58.70
2023-03-08T18:27:35.448Z,59.00
2023-03-08T18:30:02.733Z,58.60
2023-03-08T18:32:29.966Z,58.50
2023-03-08T18:34:57.126Z,58.30
2023-03-08T18:37:24.946Z,58.80
2023-03-08T18:39:55.263Z,58.80
2023-03-08T18:42:22.493Z,58.70
2023-03-08T18:44:49.829Z,58.80
2023-03-08T18:47:17.429Z,58.60
2023-03-08T18:49:44.731Z,58.80
2023-03-08T18:52:11.913Z,58.70
2023-03-08T18:54:38.992Z,58.70
2023-03-08T18:57:06.191Z,59.30
2023-03-08T18:59:34.675Z,59.00
2023-03-08T19:02:01.928Z,59.20
2023-03-08T19:04:31.920Z,59.20
2023-03-08T19:06:59.074Z,58.90
2023-03-08T19:09:26.193Z,58.90
2023-03-08T19:11:53.452Z,59.20
2023-03-08T19:14:20.648Z,59.30
2023-03-08T19:16:47.855Z,59.10
2023-03-08T19:19:16.572Z,59.30
2023-03-08T19:21:49.131Z,60.50
2023-03-08T19:24:20.453Z,60.10
2023-03-08T19:26:51.208Z,59.60
2023-03-08T19:29:21.559Z,59.50
2023-03-08T19:31:54.790Z,59.50
2023-03-08T19:34:28.241Z,59.70
2023-03-08T19:36:56.288Z,60.20
2023-03-08T19:39:26.285Z,60.50
2023-03-08T19:41:56.272Z,59.90
2023-03-08T19:44:23.899Z,60.00
2023-03-08T19:46:51.217Z,59.70
2023-03-08T19:49:22.551Z,59.60
2023-03-08T19:51:55.325Z,60.00
2023-03-08T19:54:25.789Z,59.80
2023-03-08T19:56:53.644Z,60.00
2023-03-08T19:59:21.140Z,59.90
2023-03-08T20:01:52.962Z,59.60
2023-03-08T20:04:21.182Z,59.60
2023-03-08T20:06:50.970Z,59.60
2023-03-08T20:09:22.962Z,60.00
2023-03-08T20:11:53.276Z,59.60
2023-03-08T20:14:22.559Z,59.80
2023-03-08T20:16:50.111Z,59.80
2023-03-08T20:19:17.797Z,59.80
2023-03-08T20:21:44.986Z,59.80
2023-03-08T20:24:16.345Z,59.60
2023-03-08T20:26:43.497Z,59.60
2023-03-08T20:29:10.787Z,59.40
2023-03-08T20:31:37.913Z,59.40
2023-03-08T20:34:05.050Z,59.30
2023-03-08T20:36:32.244Z,59.20
2023-03-08T20:39:00.468Z,59.20
2023-03-08T20:41:29.036Z,59.00
2023-03-08T20:43:56.393Z,59.00
2023-03-08T20:46:33.459Z,59.00
2023-03-08T20:49:01.759Z,58.90
2023-03-08T20:51:29.074Z,58.90
2023-03-08T20:53:56.526Z,58.70
2023-03-08T20:56:25.104Z,58.50
2023-03-08T20:58:54.817Z,58.60
2023-03-08T21:01:28.592Z,58.60
2023-03-08T21:03:55.820Z,58.60
2023-03-08T21:06:26.507Z,58.60
2023-03-08T21:08:53.829Z,58.60
2023-03-08T21:11:21.798Z,58.60
2023-03-08T21:13:50.052Z,58.50
2023-03-08T21:16:19.043Z,58.60
2023-03-08T21:18:54.321Z,58.50
2023-03-08T21:21:24.558Z,58.50
2023-03-08T21:23:54.367Z,58.40
2023-03-08T21:26:23.651Z,58.20
2023-03-08T21:28:50.798Z,58.10
2023-03-08T21:31:20.032Z,58.10
2023-03-08T21:33:47.768Z,58.00
2023-03-08T21:36:15.678Z,58.10
2023-03-08T21:38:43.387Z,58.00
2023-03-08T21:41:21.209Z,58.00
2023-03-08T21:43:48.649Z,58.00
2023-03-08T21:46:16.527Z,58.00
2023-03-08T21:48:44.071Z,58.00
2023-03-08T21:51:11.387Z,58.00
2023-03-08T21:53:38.914Z,57.60
2023-03-08T21:56:08.454Z,57.80
2023-03-08T21:58:36.621Z,58.00
2023-03-08T22:01:05.109Z,57.90
2023-03-08T22:03:33.528Z,57.80
2023-03-08T22:06:01.093Z,57.60
2023-03-08T22:08:28.250Z,57.50
2023-03-08T22:10:55.652Z,57.50
2023-03-08T22:13:22.914Z,57.50
2023-03-08T22:15:50.014Z,57.50
2023-03-08T22:18:17.234Z,57.40
2023-03-08T22:20:44.357Z,57.30
2023-03-08T22:23:11.513Z,57.10
2023-03-08T22:25:38.612Z,57.40
2023-03-08T22:28:05.772Z,57.40
2023-03-08T22:30:32.925Z,58.00
2023-03-08T22:33:00.058Z,57.50
2023-03-08T22:35:27.397Z,57.50
2023-03-08T22:37:54.504Z,57.40
2023-03-08T22:40:21.702Z,57.50
2023-03-08T22:42:48.921Z,57.50
2023-03-08T22:45:16.182Z,57.50
2023-03-08T22:47:43.472Z,57.30
2023-03-08T22:50:11.325Z,57.40
2023-03-08T22:52:38.483Z,57.30
2023-03-08T22:55:06.075Z,57.30
2023-03-08T22:57:37.068Z,57.30
2023-03-08T23:00:15.495Z,57.40
2023-03-08T23:02:45.585Z,57.40
2023-03-08T23:05:20.524Z,57.50
2023-03-08T23:07:48.135Z,57.90
2023-03-08T23:10:17.494Z,57.60
2023-03-08T23:12:44.683Z,57.60
2023-03-08T23:15:11.912Z,57.60
2023-03-08T23:17:39.831Z,57.60
2023-03-08T23:20:07.315Z,57.60
2023-03-08T23:22:34.411Z,57.70
2023-03-08T23:25:01.587Z,57.70
2023-03-08T23:27:28.715Z,57.70
2023-03-08T23:29:55.839Z,57.70
2023-03-08T23:32:22.991Z,57.70
2023-03-08T23:34:50.332Z,57.60
2023-03-08T23:37:17.448Z,57.60
2023-03-08T23:39:44.629Z,57.60
2023-03-08T23:42:12.121Z,57.60
2023-03-08T23:44:39.255Z,57.60
2023-03-08T23:47:06.679Z,57.50
2023-03-08T23:49:34.068Z,57.50
2023-03-08T23:52:01.230Z,57.70
2023-03-08T23:54:28.361Z,57.60
2023-03-08T23:56:55.499Z,57.70
2023-03-08T23:59:23.348Z,57.70
